ENCN/KRS METAR and TAF weather

Enter ICAO airport designator
Station Type Date Time Source
ENCN METAR 2022/06/30 01:20 UTC NOAA

ENCN 300120Z AUTO 07003KT 9999 BKN057/// 12/11 Q1018


Station Type Date Time Source
ENCN Decoded METAR 2022/06/30 01:20 UTC NOAA

Kristiansand / Kjevik, Norway (ENCN) 58-12N 008-05E 17M
Jun 29, 2022 - 09:20 PM EDT / 2022.06.30 0120 UTC
Wind: from the ENE (070 degrees) at 3 MPH (3 KT):0
Visibility: greater than 7 mile(s):0
Sky conditions: mostly cloudy
Temperature: 53 F (12 C)
Dew Point: 51 F (11 C)
Relative Humidity: 93%
Pressure (altimeter): 30.06 in. Hg (1018 hPa)
ob: ENCN 300120Z AUTO 07003KT 9999 BKN057/// 12/11 Q1018
cycle: 1

Station Type Date Time Source
ENCN TAF 2016/05/06 12:39 UTC NOAA

TAF TAF ENCN 061100Z 0612/0712 14008KT 9999 FEW040

Example: see airport list